Main page
METAR-TAF:

METAR-TAF

Airports :

Cerklje ob Krki Airport

Cerklje ob Krki, Slovenia

latitude: 45-53-59N, longitude: 15-30-55E, elevation: 157 m

Current weather observation

The report was made 30 minutes ago, at 01:30 UTC
Wind 8 kt from the Southwest
Temperature 9°C
Humidity 76%
Pressure 1010 hPa
Visibility 10 km or more

METAR: LJCE 090130Z AUTO 22008KT 9999 NSC 09/05 Q1010

Time: 03:00 (02:00 UTC)

Forecast

The report was made 3 hours and 0 minutes ago, at 23:00 UTC
Forecast valid from 09 at 00 UTC to 09 at 09 UTC
Wind 5 kt from the West/Southwest
Visibility 10 km or more
no clouds below 1500 m and no cumulonimbus
Becoming
from 09 at 03 UTC to 09 at 06 UTC
Scattered clouds at a height of 3000 ft
Broken clouds at a height of 5500 ft
Temporary
from 09 at 06 UTC to 09 at 09 UTC
Few clouds at a height of 3000 ft
Scattered clouds at a height of 6000 ft

TAF: LJCE 082300Z 0900/0909 25005KT CAVOK BECMG 0903/0906 SCT030 BKN055 TEMPO 0906/0909 FEW030 SCT060

Weather observations and forecasts of more than 4000 airports (METAR and TAF reports).

The available stations are represented by yellow and red dots on the map.

Hover mouse over dot to see the name of the station.

Then click to see weather observations and forecasts.

To change the map : click on the green buttons with a black cross to zoom in, on the green button with a dash to zoom out, or on the green arrows for adjacent maps.


METAR-TAF: